Time;durP1;ratioP1;P1;durP2;ratioP2;P2;SDS_P1;SDS_P2;PMS_P1;PMS_P2;Temp;Humidity;BMP_temperature;BMP_pressure;BME280_temperature;BME280_humidity;BME280_pressure;Samples;Min_cycle;Max_cycle;Signal;HPM_P1;HPM_P2
2021/12/05 00:26:10;;;;;;;52.50;23.30;;;2.40;99.90;;;;;;10101997;29;20069;-85
2021/12/05 00:31:40;;;;;;;57.47;25.27;;;2.40;99.90;;;;;;10118582;29;20036;-85
2021/12/05 01:17:23;;;;;;;70.73;30.90;;;2.30;99.90;;;;;;10126359;29;20495;-86
2021/12/05 01:22:26;;;;;;;55.40;24.58;;;2.30;99.90;;;;;;10126867;29;20103;-86
2021/12/05 01:49:08;;;;;;;47.37;22.30;;;2.30;99.90;;;;;;10125676;29;20477;-86
2021/12/05 01:59:15;;;;;;;31.63;15.57;;;2.30;99.90;;;;;;10089246;29;1136273;-86
2021/12/05 02:37:01;;;;;;;35.10;17.43;;;2.10;99.90;;;;;;10132769;29;20028;-85
2021/12/05 02:41:27;;;;;;;42.97;19.20;;;2.00;99.90;;;;;;10122321;29;20167;-84
2021/12/05 02:46:28;;;;;;;42.87;18.10;;;1.90;99.90;;;;;;10134093;29;20649;-86
2021/12/05 02:51:30;;;;;;;37.90;17.57;;;1.80;99.90;;;;;;10133680;29;20033;-86
2021/12/05 02:56:36;;;;;;;42.50;19.80;;;1.70;99.90;;;;;;10133430;29;20052;-85
2021/12/05 03:01:42;;;;;;;41.92;21.30;;;1.70;99.90;;;;;;10116611;29;20078;-86
2021/12/05 03:06:53;;;;;;;38.27;18.70;;;1.60;99.90;;;;;;10115915;29;20077;-86
2021/12/05 03:11:54;;;;;;;42.27;18.80;;;1.50;99.90;;;;;;10134022;29;20036;-85
2021/12/05 03:16:55;;;;;;;35.87;17.23;;;1.50;99.90;;;;;;10133598;29;20040;-86
2021/12/05 03:21:56;;;;;;;40.57;20.93;;;1.50;99.90;;;;;;10132393;29;20559;-86
2021/12/05 03:26:57;;;;;;;35.63;20.60;;;1.50;99.90;;;;;;10132555;29;20037;-87
2021/12/05 03:31:58;;;;;;;48.63;24.70;;;1.50;99.90;;;;;;10115516;29;20021;-86
2021/12/05 03:37:00;;;;;;;62.97;32.77;;;1.50;99.90;;;;;;10132600;29;20028;-87
2021/12/05 03:42:02;;;;;;;45.40;23.17;;;1.40;99.90;;;;;;10114593;29;20029;-86
2021/12/05 03:47:06;;;;;;;39.13;19.40;;;1.50;99.90;;;;;;10131163;29;20039;-86
2021/12/05 03:52:11;;;;;;;37.57;18.63;;;1.40;99.90;;;;;;10115096;29;20084;-86
2021/12/05 03:57:12;;;;;;;39.40;17.90;;;1.40;99.90;;;;;;10130906;29;20064;-86
2021/12/05 04:02:13;;;;;;;39.77;18.57;;;1.40;99.90;;;;;;10130790;29;20277;-86
2021/12/05 04:07:15;;;;;;;33.07;17.13;;;1.40;99.90;;;;;;10131839;29;20068;-86
2021/12/05 04:12:16;;;;;;;33.93;17.20;;;1.30;99.90;;;;;;10130337;29;20036;-86
2021/12/05 04:17:19;;;;;;;34.70;18.73;;;1.30;99.90;;;;;;10113958;29;20404;-85
2021/12/05 04:22:20;;;;;;;38.93;19.13;;;1.30;99.90;;;;;;10113313;29;20040;-86
2021/12/05 04:27:21;;;;;;;36.03;18.53;;;1.30;99.90;;;;;;10130912;29;20088;-85
2021/12/05 04:32:22;;;;;;;36.77;18.67;;;1.20;99.90;;;;;;10129852;29;20037;-85
2021/12/05 04:37:23;;;;;;;42.03;21.27;;;1.20;99.90;;;;;;10129468;29;20032;-85
2021/12/05 04:42:25;;;;;;;43.70;22.30;;;1.20;99.90;;;;;;10113141;29;20041;-85
2021/12/05 04:47:25;;;;;;;43.23;21.83;;;1.10;99.90;;;;;;10129803;29;20048;-85
2021/12/05 04:52:26;;;;;;;51.90;25.33;;;1.20;99.90;;;;;;10112448;29;20036;-84
2021/12/05 04:57:27;;;;;;;43.93;22.20;;;1.10;99.90;;;;;;10089478;29;20056;-85
2021/12/05 05:02:28;;;;;;;48.90;23.80;;;1.10;99.90;;;;;;10125434;29;20044;-84
2021/12/05 05:07:28;;;;;;;46.77;24.60;;;1.20;99.90;;;;;;10127187;29;20044;-84
2021/12/05 05:12:29;;;;;;;62.97;29.43;;;1.10;99.90;;;;;;10129598;29;20033;-85
2021/12/05 05:17:30;;;;;;;56.50;26.77;;;1.10;99.90;;;;;;10128545;29;20033;-85
2021/12/05 05:22:53;;;;;;;54.97;29.17;;;1.10;99.90;;;;;;10127955;29;20048;-84
2021/12/05 05:28:25;;;;;;;50.37;26.47;;;1.10;99.90;;;;;;10128923;29;20043;-85
2021/12/05 05:54:34;;;;;;;61.67;30.27;;;1.10;99.90;;;;;;10127393;29;20048;-86
2021/12/05 05:59:45;;;;;;;63.10;29.43;;;1.10;99.90;;;;;;10128029;29;20045;-84
2021/12/05 06:04:45;;;;;;;60.30;29.90;;;1.10;99.90;;;;;;10104421;29;20041;-85
2021/12/05 06:09:46;;;;;;;68.23;32.60;;;1.10;99.90;;;;;;10105091;29;20051;-87
2021/12/05 06:14:47;;;;;;;263.87;110.30;;;1.10;99.90;;;;;;10134252;29;20059;-86
2021/12/05 06:19:48;;;;;;;169.13;70.83;;;1.10;99.90;;;;;;10118246;29;20076;-86
2021/12/05 06:24:48;;;;;;;98.10;44.37;;;1.10;99.90;;;;;;10135221;29;20399;-86
2021/12/05 06:29:57;;;;;;;189.43;79.10;;;1.20;99.90;;;;;;10135012;29;20067;-85
2021/12/05 06:41:11;;;;;;;232.73;90.87;;;1.10;99.90;;;;;;10134133;29;20048;-86
2021/12/05 06:46:04;;;;;;;115.37;51.73;;;1.10;99.90;;;;;;10124284;29;20131;-86
2021/12/05 06:51:05;;;;;;;239.03;92.33;;;1.20;99.90;;;;;;10134608;29;20016;-86
2021/12/05 06:56:06;;;;;;;154.70;58.20;;;1.20;99.90;;;;;;10133442;29;20100;-86
2021/12/05 07:01:10;;;;;;;223.00;90.10;;;1.20;99.90;;;;;;10133819;29;20029;-86
2021/12/05 07:06:29;;;;;;;262.00;93.17;;;1.20;99.90;;;;;;10132788;29;20519;-85
2021/12/05 07:11:50;;;;;;;478.70;183.83;;;1.30;99.90;;;;;;10132412;29;20056;-86
2021/12/05 07:21:59;;;;;;;310.27;110.67;;;1.30;99.90;;;;;;10131393;29;20123;-86
2021/12/05 07:42:41;;;;;;;367.07;160.87;;;1.50;99.90;;;;;;10132162;29;20033;-86
2021/12/05 07:47:45;;;;;;;340.10;153.13;;;1.50;99.90;;;;;;10142621;29;20062;-86
2021/12/05 07:52:50;;;;;;;209.50;101.80;;;1.50;99.90;;;;;;10130942;29;20576;-86
2021/12/05 08:18:59;;;;;;;256.10;123.90;;;1.80;99.90;;;;;;10130698;29;20040;-85
2021/12/05 08:24:01;;;;;;;295.73;129.63;;;1.80;99.90;;;;;;10112173;29;20037;-85
2021/12/05 10:14:46;;;;;;;60.20;33.15;;;2.50;99.90;;;;;;10121614;29;20088;-91
2021/12/05 10:35:52;;;;;;;101.20;60.97;;;2.30;99.90;;;;;;10135045;29;20037;-87
2021/12/05 10:46:16;;;;;;;76.77;43.47;;;2.20;99.90;;;;;;10128932;29;20040;-86
2021/12/05 10:51:31;;;;;;;78.43;44.27;;;2.30;99.90;;;;;;10133107;29;20024;-87
2021/12/05 10:56:37;;;;;;;76.50;40.57;;;2.30;99.90;;;;;;10132945;29;20048;-86
2021/12/05 11:01:57;;;;;;;67.13;39.72;;;2.40;99.90;;;;;;10133951;29;20036;-86
2021/12/05 11:07:05;;;;;;;73.60;39.90;;;2.40;99.90;;;;;;10133733;29;20433;-86
2021/12/05 11:12:19;;;;;;;74.20;39.97;;;2.40;99.90;;;;;;10133246;29;20032;-87
2021/12/05 11:17:23;;;;;;;77.43;42.27;;;2.50;99.90;;;;;;10112981;29;20025;-88
2021/12/05 11:22:27;;;;;;;75.70;41.67;;;2.50;99.90;;;;;;10111279;29;20380;-87
2021/12/05 11:27:39;;;;;;;87.53;47.67;;;2.60;99.90;;;;;;10115770;29;20043;-87
2021/12/05 11:32:40;;;;;;;113.83;56.30;;;2.60;99.90;;;;;;10115771;29;20021;-87
2021/12/05 11:38:13;;;;;;;124.10;58.67;;;2.50;99.90;;;;;;10115366;29;20368;-87
2021/12/05 11:43:24;;;;;;;93.70;52.47;;;2.50;99.90;;;;;;10084331;29;20432;-85
2021/12/05 11:48:31;;;;;;;153.43;72.40;;;2.50;99.90;;;;;;10130714;29;20036;-86
2021/12/05 11:53:45;;;;;;;108.63;58.73;;;2.50;99.90;;;;;;10132915;29;20029;-86
2021/12/05 11:59:18;;;;;;;103.17;59.40;;;2.50;99.90;;;;;;10131921;29;20101;-86
2021/12/05 12:04:24;;;;;;;101.73;55.07;;;2.50;99.90;;;;;;10128433;29;20052;-87
2021/12/05 12:09:25;;;;;;;99.20;56.58;;;2.50;99.90;;;;;;10113365;29;20032;-87
2021/12/05 12:14:27;;;;;;;108.40;58.53;;;2.50;99.90;;;;;;10125028;29;20376;-86
2021/12/05 12:19:28;;;;;;;116.63;60.43;;;2.50;99.90;;;;;;10128431;29;20039;-85
2021/12/05 12:24:30;;;;;;;130.40;71.93;;;2.50;99.90;;;;;;10129839;29;20036;-86
2021/12/05 12:29:31;;;;;;;110.77;58.50;;;2.50;99.90;;;;;;10130385;29;20140;-86
2021/12/05 12:34:31;;;;;;;207.47;102.93;;;2.50;99.90;;;;;;10112703;29;20121;-85
2021/12/05 12:39:36;;;;;;;128.93;65.33;;;2.40;99.90;;;;;;10129574;29;20028;-85
2021/12/05 12:44:37;;;;;;;136.50;70.30;;;2.40;99.90;;;;;;10113610;29;20036;-85
2021/12/05 12:49:40;;;;;;;131.33;59.70;;;2.50;99.90;;;;;;10130073;29;20020;-87
2021/12/05 12:54:44;;;;;;;126.47;63.63;;;2.50;99.90;;;;;;10129725;29;20027;-86
2021/12/05 12:59:57;;;;;;;101.83;52.40;;;2.50;99.90;;;;;;10116673;29;20052;-86
2021/12/05 13:10:43;;;;;;;107.40;54.97;;;2.50;99.90;;;;;;10084991;29;20465;-86
2021/12/05 13:15:52;;;;;;;228.50;99.83;;;2.50;99.90;;;;;;10119738;29;20032;-87
2021/12/05 13:21:00;;;;;;;236.37;105.27;;;2.60;99.90;;;;;;10125946;29;20112;-85
2021/12/05 13:26:23;;;;;;;114.50;56.93;;;2.60;99.90;;;;;;10110639;29;20039;-84
2021/12/05 13:31:28;;;;;;;132.10;63.90;;;2.60;99.90;;;;;;10105027;29;20047;-85
2021/12/05 13:36:32;;;;;;;134.07;69.00;;;2.60;99.90;;;;;;10127711;29;20279;-86
2021/12/05 13:41:35;;;;;;;116.57;60.40;;;2.60;99.90;;;;;;10123480;29;20039;-86
2021/12/05 13:46:42;;;;;;;125.57;67.57;;;2.60;99.90;;;;;;10107538;29;20492;-84
2021/12/05 13:51:43;;;;;;;148.73;77.23;;;2.70;99.90;;;;;;10118154;29;20033;-86
2021/12/05 13:56:46;;;;;;;154.90;85.67;;;2.70;99.90;;;;;;10123147;29;20060;-85
2021/12/05 14:01:52;;;;;;;197.83;94.77;;;2.70;99.90;;;;;;10119787;29;20021;-84
2021/12/05 14:07:07;;;;;;;160.40;81.57;;;2.70;99.90;;;;;;10121217;29;20047;-85
2021/12/05 14:12:14;;;;;;;208.97;95.73;;;2.70;99.90;;;;;;10116350;29;20128;-84
2021/12/05 14:17:23;;;;;;;177.80;88.07;;;2.60;99.90;;;;;;10122067;29;20032;-86
2021/12/05 14:22:29;;;;;;;174.53;91.40;;;2.60;99.90;;;;;;10117570;29;20043;-87
2021/12/05 14:27:36;;;;;;;167.93;86.05;;;2.60;99.90;;;;;;10120515;29;20139;-85
2021/12/05 14:32:40;;;;;;;206.60;104.70;;;2.60;99.90;;;;;;10120488;29;20499;-85
2021/12/05 14:37:43;;;;;;;208.87;101.30;;;2.60;99.90;;;;;;10128914;29;20111;-85
2021/12/05 14:42:47;;;;;;;309.67;140.37;;;2.70;99.90;;;;;;10125633;29;20115;-85
2021/12/05 14:47:49;;;;;;;311.80;147.07;;;2.60;99.90;;;;;;10125330;29;20032;-85
2021/12/05 14:52:52;;;;;;;241.77;111.47;;;2.60;99.90;;;;;;10109734;29;20377;-84
2021/12/05 14:58:05;;;;;;;304.77;138.83;;;2.60;99.90;;;;;;10131591;29;20143;-86
2021/12/05 15:03:17;;;;;;;382.77;183.40;;;2.60;99.90;;;;;;10130435;29;20040;-85
2021/12/05 15:08:20;;;;;;;271.83;129.23;;;2.60;99.90;;;;;;10113885;29;20100;-87
2021/12/05 15:13:21;;;;;;;391.87;165.10;;;2.60;99.90;;;;;;10130064;29;20354;-87
2021/12/05 15:18:28;;;;;;;256.70;124.73;;;2.60;99.90;;;;;;10130125;29;20032;-85
2021/12/05 15:23:31;;;;;;;394.30;200.33;;;2.60;99.90;;;;;;10131490;29;20033;-87
2021/12/05 15:28:35;;;;;;;261.03;136.10;;;2.60;99.90;;;;;;10129662;29;20088;-87
2021/12/05 15:33:37;;;;;;;265.43;134.90;;;2.60;99.90;;;;;;10129024;29;20064;-86
2021/12/05 15:38:38;;;;;;;414.87;208.03;;;2.70;99.90;;;;;;10126872;29;20083;-85
2021/12/05 15:43:41;;;;;;;318.80;148.77;;;2.70;99.90;;;;;;10126002;29;20159;-84
2021/12/05 15:48:45;;;;;;;221.67;115.93;;;2.70;99.90;;;;;;10124274;29;20084;-86
2021/12/05 15:53:46;;;;;;;195.00;102.57;;;2.70;99.90;;;;;;10110577;29;20088;-84
2021/12/05 15:58:58;;;;;;;152.57;80.93;;;2.70;99.90;;;;;;10127486;29;20054;-89
2021/12/05 16:04:03;;;;;;;187.30;94.37;;;2.80;99.90;;;;;;10128280;29;20040;-87
2021/12/05 16:09:19;;;;;;;418.85;192.23;;;2.70;99.90;;;;;;10109749;29;20111;-90
2021/12/05 16:14:31;;;;;;;;;;;2.80;99.90;;;;;;10128058;29;20029;-91
2021/12/05 16:19:35;;;;;;;215.30;108.50;;;2.70;99.90;;;;;;10127935;29;20442;-87
2021/12/05 16:24:40;;;;;;;175.43;91.03;;;2.70;99.90;;;;;;10113559;29;20036;-86
2021/12/05 16:29:41;;;;;;;323.53;162.47;;;2.80;99.90;;;;;;10130032;29;20016;-89
2021/12/05 16:34:46;;;;;;;229.50;123.50;;;2.80;99.90;;;;;;10129502;29;20020;-87
2021/12/05 16:39:55;;;;;;;245.97;122.50;;;2.70;99.90;;;;;;10129702;29;20021;-87
2021/12/05 16:44:59;;;;;;;179.93;92.80;;;2.70;99.90;;;;;;10112657;29;20036;-87
2021/12/05 16:50:03;;;;;;;235.03;119.70;;;2.70;99.90;;;;;;10112338;29;20067;-86
2021/12/05 16:55:29;;;;;;;360.73;198.50;;;2.80;99.90;;;;;;10129744;29;20028;-86
2021/12/05 17:00:30;;;;;;;221.90;119.03;;;2.80;99.90;;;;;;10105467;29;20108;-87
2021/12/05 17:05:39;;;;;;;235.73;123.23;;;2.80;99.90;;;;;;10111945;29;20429;-87
2021/12/05 17:10:40;;;;;;;179.33;91.20;;;2.80;99.90;;;;;;10127630;29;20029;-86
2021/12/05 17:16:05;;;;;;;287.77;127.03;;;2.80;99.90;;;;;;10111350;29;20477;-86
2021/12/05 17:21:25;;;;;;;290.67;130.17;;;2.80;99.90;;;;;;10123362;29;20112;-85
2021/12/05 17:26:35;;;;;;;391.43;161.60;;;2.80;99.90;;;;;;10128306;29;20481;-86
2021/12/05 17:31:40;;;;;;;275.60;127.17;;;2.80;99.90;;;;;;10127683;29;20525;-86
2021/12/05 17:36:44;;;;;;;208.73;101.53;;;2.80;99.90;;;;;;10118831;29;20093;-86
2021/12/05 17:41:48;;;;;;;450.33;182.17;;;2.80;99.90;;;;;;10128005;29;20044;-86
2021/12/05 17:46:52;;;;;;;237.73;104.33;;;2.80;99.90;;;;;;10125412;29;20084;-86
2021/12/05 17:58:00;;;;;;;180.17;98.00;;;2.80;99.90;;;;;;10123209;29;20433;-87
2021/12/05 18:03:09;;;;;;;169.00;92.50;;;2.80;99.90;;;;;;10108755;29;20532;-88
2021/12/05 18:08:18;;;;;;;283.47;132.67;;;2.80;99.90;;;;;;10132856;29;20072;-87
2021/12/05 18:13:23;;;;;;;243.20;112.40;;;2.80;99.90;;;;;;10108318;29;20040;-87
2021/12/05 18:18:26;;;;;;;301.20;130.07;;;2.80;99.90;;;;;;10114073;29;20033;-89
2021/12/05 18:23:27;;;;;;;229.23;101.67;;;2.80;99.90;;;;;;10084069;29;20053;-87
2021/12/05 18:28:30;;;;;;;194.43;97.73;;;2.80;99.90;;;;;;10121142;29;20449;-88
2021/12/05 18:33:31;;;;;;;213.73;109.53;;;2.80;99.90;;;;;;10133983;29;20024;-87
2021/12/05 18:38:33;;;;;;;187.20;94.10;;;2.80;99.90;;;;;;10117455;29;20107;-87
2021/12/05 18:43:34;;;;;;;183.13;92.33;;;2.80;99.90;;;;;;10121065;29;20492;-90
2021/12/05 18:48:35;;;;;;;285.07;124.63;;;2.80;99.90;;;;;;10115054;29;20045;-86
2021/12/05 18:53:49;;;;;;;372.10;159.70;;;2.80;99.90;;;;;;10111443;29;20116;-91
2021/12/05 18:58:50;;;;;;;401.23;177.27;;;2.70;99.90;;;;;;10128912;29;20052;-87
2021/12/05 19:04:50;;;;;;;336.90;144.53;;;2.80;99.90;;;;;;10130173;29;20484;-89
2021/12/05 19:14:57;;;;;;;279.03;126.03;;;2.70;99.90;;;;;;10119281;29;20043;-88
2021/12/05 19:20:10;;;;;;;352.33;150.67;;;2.70;99.90;;;;;;10118909;29;20020;-90
2021/12/05 19:25:19;;;;;;;399.40;179.73;;;2.80;99.90;;;;;;10110039;29;20143;-87
2021/12/05 19:30:26;;;;;;;338.70;155.53;;;2.80;99.90;;;;;;10133354;29;20029;-88
2021/12/05 19:35:27;;;;;;;253.30;120.00;;;2.80;99.90;;;;;;10133888;29;20338;-88
2021/12/05 19:40:28;;;;;;;297.90;127.50;;;2.80;99.90;;;;;;10110082;29;20020;-89
2021/12/05 19:45:31;;;;;;;234.93;111.30;;;2.80;99.90;;;;;;10132179;29;20048;-87
2021/12/05 19:50:36;;;;;;;230.83;112.50;;;2.80;99.90;;;;;;10114313;29;20024;-87
2021/12/05 19:55:37;;;;;;;356.60;154.48;;;2.80;99.90;;;;;;10136422;29;20147;-88
2021/12/05 20:00:40;;;;;;;299.93;134.57;;;2.90;99.90;;;;;;10132355;29;20051;-88
2021/12/05 20:05:41;;;;;;;272.50;129.57;;;2.90;99.90;;;;;;10119997;29;20063;-88
2021/12/05 20:10:45;;;;;;;378.63;156.63;;;2.90;99.90;;;;;;10130758;29;20040;-87
2021/12/05 20:15:46;;;;;;;292.37;129.53;;;2.90;99.90;;;;;;10131222;29;20063;-86
2021/12/05 20:20:49;;;;;;;357.50;149.67;;;2.90;99.90;;;;;;10131931;29;20056;-86
2021/12/05 20:25:50;;;;;;;381.73;167.43;;;2.90;99.90;;;;;;10112829;29;20048;-85
2021/12/05 20:30:53;;;;;;;360.23;147.40;;;2.90;99.90;;;;;;10115464;29;20457;-87
2021/12/05 20:35:54;;;;;;;374.83;173.03;;;2.80;99.90;;;;;;10103758;29;20059;-87
2021/12/05 20:40:55;;;;;;;340.40;160.53;;;2.80;99.90;;;;;;10116570;29;20436;-87
2021/12/05 20:45:58;;;;;;;409.27;180.93;;;2.80;99.90;;;;;;10108293;29;20044;-87
2021/12/05 20:50:59;;;;;;;394.97;175.87;;;2.80;99.90;;;;;;10105752;29;20037;-88
2021/12/05 20:56:01;;;;;;;322.17;139.10;;;2.80;99.90;;;;;;10104568;29;20207;-86
2021/12/05 21:01:03;;;;;;;381.07;159.70;;;2.80;99.90;;;;;;10105312;29;20108;-87
2021/12/05 21:06:07;;;;;;;381.70;150.13;;;2.90;99.90;;;;;;10113101;29;20025;-88
2021/12/05 21:11:12;;;;;;;372.37;154.30;;;2.90;99.90;;;;;;10121799;29;20025;-88
2021/12/05 21:16:13;;;;;;;461.23;184.03;;;2.90;99.90;;;;;;10117735;29;20060;-88
2021/12/05 21:21:18;;;;;;;337.03;146.87;;;2.90;99.90;;;;;;10119535;29;20028;-88
2021/12/05 21:26:20;;;;;;;305.37;127.87;;;2.90;99.90;;;;;;10100041;29;20460;-88
2021/12/05 21:31:21;;;;;;;394.90;153.80;;;2.90;99.90;;;;;;10116705;29;20281;-87
2021/12/05 21:36:22;;;;;;;432.00;163.93;;;2.90;99.90;;;;;;10112869;29;20059;-88
2021/12/05 21:41:23;;;;;;;335.40;139.63;;;2.90;99.90;;;;;;10133749;29;20107;-89
2021/12/05 21:46:25;;;;;;;396.80;163.47;;;2.90;99.90;;;;;;10136194;29;20419;-89
2021/12/05 21:51:26;;;;;;;424.50;172.93;;;2.90;99.90;;;;;;10136581;29;20040;-89
2021/12/05 21:56:27;;;;;;;476.10;214.00;;;2.90;99.90;;;;;;10136020;29;20178;-89
2021/12/05 22:01:28;;;;;;;383.00;183.53;;;2.90;99.90;;;;;;10136574;29;20052;-89
2021/12/05 22:06:29;;;;;;;351.43;162.60;;;2.90;99.90;;;;;;10118969;29;20055;-89
2021/12/05 22:11:30;;;;;;;294.20;141.90;;;2.90;99.90;;;;;;10135496;29;20127;-88
2021/12/05 22:16:31;;;;;;;325.30;145.20;;;2.90;99.90;;;;;;10118319;29;20032;-86
2021/12/05 22:21:38;;;;;;;275.40;133.50;;;2.90;99.90;;;;;;10136008;29;20461;-86
2021/12/05 22:26:42;;;;;;;365.87;172.40;;;2.90;99.90;;;;;;10135020;29;20135;-86
2021/12/05 22:31:44;;;;;;;353.03;168.73;;;3.00;99.90;;;;;;10134321;29;20465;-86
2021/12/05 22:36:45;;;;;;;275.50;125.67;;;3.00;99.90;;;;;;10135446;29;20024;-86
2021/12/05 22:41:46;;;;;;;275.63;123.67;;;3.00;99.90;;;;;;10117914;29;20089;-86
2021/12/05 22:46:47;;;;;;;252.43;121.27;;;2.90;99.90;;;;;;10117270;29;20048;-86
2021/12/05 22:51:49;;;;;;;230.70;112.00;;;2.90;99.90;;;;;;10134123;29;20491;-86
2021/12/05 22:56:50;;;;;;;277.80;126.07;;;2.90;99.90;;;;;;10132778;29;20358;-86
2021/12/05 23:01:51;;;;;;;257.73;121.30;;;2.90;99.90;;;;;;10134267;29;20033;-86
2021/12/05 23:06:51;;;;;;;253.23;118.80;;;2.90;99.90;;;;;;10133898;29;20043;-87
2021/12/05 23:11:53;;;;;;;250.23;117.40;;;3.00;99.90;;;;;;10132944;29;20484;-87
2021/12/05 23:16:53;;;;;;;230.50;109.30;;;2.90;99.90;;;;;;10133251;29;20028;-88
2021/12/05 23:22:00;;;;;;;206.80;106.60;;;2.90;99.90;;;;;;10115936;29;20032;-87
2021/12/05 23:27:04;;;;;;;260.33;125.07;;;2.90;99.90;;;;;;10133507;29;20457;-87
2021/12/05 23:32:12;;;;;;;236.97;117.73;;;2.80;99.90;;;;;;10132054;29;20037;-87
2021/12/05 23:37:14;;;;;;;229.20;111.70;;;2.80;99.90;;;;;;10132661;29;20544;-87
2021/12/05 23:42:15;;;;;;;235.20;112.87;;;2.80;99.90;;;;;;10132994;29;20032;-87
2021/12/05 23:47:16;;;;;;;238.63;115.90;;;2.80;99.90;;;;;;10131598;29;20041;-87
2021/12/05 23:52:17;;;;;;;221.70;109.43;;;2.90;99.90;;;;;;10132242;29;20029;-87
2021/12/05 23:57:18;;;;;;;184.93;93.67;;;2.90;99.90;;;;;;10131466;29;20049;-88
